• Join FlightAware (Why Join?)
  • Login
  • US Flag 
11:36AM EDT


 

Airport Tracker/Info


-or-


 

Live Flight TrackerFlight Track Log ✈ EJA929 ✈ 29-Sep-2013 ✈ KBNA - KBFI

Flight Track Log - Related Links

Times and Time Zones

All times are in EDT time to prevent confusion due to time zone crossing. See the EJA929 flight status page for this flight to view local times or setup timezone preferences in your user account.

Time Position Orientation Groundspeed Altitude Reporting Facility
EDT Latitude Longitude Course Direction KTS MPH feet Rate Location/Type
05:38PM 36.0833 -86.7000 219° Southwest 182 209 1,800  Level Nashville TRACON
05:39PM 36.0667 -86.7167 219° Southwest 199 229 3,600 2,220 Climbing Nashville TRACON
05:40PM 36.0272 -86.7586 221° Southwest 212 244 5,000 2,100 Climbing Memphis Center
05:41PM 35.9686 -86.8161 218° Southwest 257 296 7,300 2,400 Climbing Memphis Center
05:42PM 35.9692 -86.8944 271° West 290 334 10,000 2,160 Climbing Memphis Center
05:43PM 36.0400 -86.9408 332° Northwest 289 333 11,800 1,500 Climbing Memphis Center
05:44PM 36.1228 -86.9839 337° Northwest 313 360 13,200 1,440 Climbing Memphis Center
05:45PM 36.2128 -87.0289 338° Northwest 338 389 14,800 1,620 Climbing Memphis Center
05:46PM 36.3033 -87.0750 338° Northwest 342 394 16,600 1,380 Climbing Memphis Center
05:47PM 36.3936 -87.1222 337° Northwest 344 396 17,700 840 Climbing Memphis Center
05:48PM 36.4778 -87.1961 325° Northwest 369 425 18,400 960 Climbing Memphis Center
05:49PM 36.5639 -87.3094 313° West 381 438 19,700 1,200 Climbing Memphis Center
05:50PM 36.6392 -87.4081 314° West 387 445 20,900 1,140 Climbing Memphis Center
05:51PM 36.7153 -87.5081 314° West 392 451 22,100 1,140 Climbing Memphis Center
05:52PM 36.7914 -87.6089 313° West 395 455 23,300 1,200 Climbing Memphis Center
05:53PM 36.8622 -87.7181 309° West 400 460 24,600 1,200 Climbing Memphis Center
05:54PM 36.9292 -87.8361 305° West 408 470 25,800 1,140 Climbing Memphis Center
05:55PM 36.9972 -87.9547 306° West 414 476 27,000 1,140 Climbing Memphis Center
05:56PM 37.0675 -88.0753 306° West 422 486 28,200 1,200 Climbing Memphis Center
05:57PM 37.1497 -88.2167 306° West 424 488 29,600 1,200 Climbing Memphis Center
05:58PM 37.2186 -88.3369 306° West 425 489 30,800 1,140 Climbing Memphis Center
05:59PM 37.2883 -88.4625 305° West 432 497 32,000 1,140 Climbing Memphis Center
06:00PM 37.3272 -88.6053 289° West 429 494 33,200 1,200 Climbing Memphis Center
06:01PM 37.3678 -88.7472 290° West 433 498 34,500 1,500 Climbing Memphis Center
06:02PM 37.4075 -88.8536 295° West 427 491 35,900 1,560 Climbing Kansas City Center
06:03PM 37.4742 -88.9706 306° West 416 479 37,400 1,200 Climbing Kansas City Center
06:04PM 37.5417 -89.0894 306° West 416 479 38,400 900 Climbing Kansas City Center
06:05PM 37.6092 -89.2119 305° West 423 487 39,300 720 Climbing Kansas City Center
06:06PM 37.6894 -89.3539 306° West 419 482 40,000 300 Climbing Kansas City Center
06:07PM 37.7525 -89.4656 306° West 429 494 40,000  Level Kansas City Center
06:08PM 37.8256 -89.5944 306° West 445 512 40,000  Level Kansas City Center
06:09PM 37.9142 -89.7544 305° West 460 529 40,000  Level Kansas City Center
06:11PM 37.9886 -89.8894 305° West 466 536 40,000  Level Kansas City Center
06:12PM 38.0694 -90.0372 305° West 471 542 40,000  Level Kansas City Center
06:13PM 38.1397 -90.1647 305° West 474 545 40,000  Level Kansas City Center
06:14PM 38.2150 -90.3008 305° West 471 542 40,000  Level Kansas City Center
06:15PM 38.2897 -90.4411 304° West 474 545 40,000  Level Kansas City Center
06:16PM 38.3661 -90.5817 305° West 476 548 40,000  Level Kansas City Center
06:17PM 38.4578 -90.7506 305° West 479 551 40,000  Level Kansas City Center
06:18PM 38.5333 -90.8922 304° West 479 551 40,000  Level Kansas City Center
06:19PM 38.6100 -91.0344 305° West 481 554 40,000  Level Kansas City Center
06:20PM 38.6867 -91.1781 304° West 485 558 40,000  Level Kansas City Center
06:21PM 38.7619 -91.3203 304° West 483 556 40,000  Level Kansas City Center
06:22PM 38.8381 -91.4633 304° West 484 557 40,000  Level Kansas City Center
06:23PM 38.9131 -91.6067 304° West 485 558 40,000  Level Kansas City Center
06:24PM 38.9972 -91.7683 304° West 491 565 40,000  Level Kansas City Center
06:25PM 39.0728 -91.9156 303° West 493 567 40,000  Level Kansas City Center
06:26PM 39.1644 -92.0950 303° West 498 573 40,000  Level Kansas City Center
06:27PM 39.2431 -92.2442 304° West 501 577 40,000  Level Kansas City Center
06:28PM 39.3217 -92.3947 304° West 508 585 40,000  Level Kansas City Center
06:29PM 39.3997 -92.5469 304° West 510 587 40,000  Level Kansas City Center
06:30PM 39.4761 -92.7000 303° West 511 588 40,000  Level Kansas City Center
06:31PM 39.5539 -92.8547 303° West 511 588 40,000  Level Kansas City Center
06:32PM 39.6478 -93.0425 303° West 519 597 40,000  Level Kansas City Center
06:33PM 39.7275 -93.2028 303° West 525 604 40,000  Level Kansas City Center
06:34PM 39.8067 -93.3592 303° West 522 601 40,000  Level Kansas City Center
06:35PM 39.8822 -93.5175 302° West 519 597 40,000  Level Kansas City Center
06:36PM 39.9606 -93.6744 303° West 518 596 40,000  Level Kansas City Center
06:37PM 40.0358 -93.8297 302° West 515 593 40,000  Level Kansas City Center
06:38PM 40.1275 -94.0200 302° West 516 594 40,000  Level Kansas City Center
06:39PM 40.2053 -94.1814 302° West 513 590 40,000  Level Kansas City Center
06:40PM 40.2764 -94.3300 302° West 509 586 40,000  Level Kansas City Center
06:42PM 40.3589 -94.5017 302° West 505 581 40,000  Level Kansas City Center
06:43PM 40.4294 -94.6489 302° West 502 578 40,000  Level Kansas City Center
06:44PM 40.5114 -94.8217 302° West 500 575 40,000  Level Kansas City Center
06:45PM 40.5814 -94.9700 302° West 500 575 40,000  Level Kansas City Center
06:46PM 40.6628 -95.1456 301° West 503 579 40,000  Level Kansas City Center
06:47PM 40.7603 -95.3447 303° West 499 574 40,000  Level Minneapolis Center
06:48PM 40.8331 -95.5011 302° West 498 573 40,000  Level Minneapolis Center
06:49PM 40.9042 -95.6597 301° West 499 574 40,000  Level Minneapolis Center
06:50PM 40.9761 -95.8175 301° West 500 575 40,000  Level Minneapolis Center
06:51PM 41.0631 -96.0078 301° West 499 574 40,000  Level Minneapolis Center
06:52PM 41.1347 -96.1653 301° West 494 568 40,000  Level Minneapolis Center
06:53PM 41.2069 -96.3194 302° West 491 565 40,000  Level Minneapolis Center
06:54PM 41.2778 -96.4797 300° West 491 565 40,000  Level Minneapolis Center
06:55PM 41.3483 -96.6372 301° West 492 566 40,000  Level Minneapolis Center
06:56PM 41.4167 -96.7942 300° West 490 564 40,000  Level Minneapolis Center
06:57PM 41.4872 -96.9500 301° West 489 563 40,000  Level Minneapolis Center
06:58PM 41.5569 -97.1072 301° West 490 564 40,000  Level Minneapolis Center
06:59PM 41.6397 -97.2972 300° West 492 566 40,000  Level Minneapolis Center
07:01PM 41.7086 -97.4550 300° West 492 566 40,000  Level Minneapolis Center
07:02PM 41.7769 -97.6136 300° West 491 565 40,000  Level Minneapolis Center
07:03PM 41.8456 -97.7733 300° West 493 567 40,000  Level Minneapolis Center
07:04PM 41.9272 -97.9625 300° West 490 564 40,000  Level Minneapolis Center
07:05PM 41.9942 -98.1217 300° West 490 564 40,000  Level Minneapolis Center
07:06PM 42.0567 -98.2675 300° West 487 560 40,000  Level Minneapolis Center
07:07PM 42.1217 -98.4250 299° West 485 558 40,000  Level Minneapolis Center
07:08PM 42.2003 -98.6111 300° West 479 551 40,000  Level Minneapolis Center
07:09PM 42.2644 -98.7675 299° West 478 550 40,000  Level Minneapolis Center
07:10PM 42.3286 -98.9217 299° West 475 547 40,000  Level Minneapolis Center
07:11PM 42.3925 -99.0783 299° West 476 548 40,000  Level Minneapolis Center
07:12PM 42.4439 -99.2031 299° West 478 550 40,000  Level Denver Center
07:13PM 42.5083 -99.3600 299° West 479 551 40,000  Level Denver Center
07:14PM 42.5850 -99.5492 299° West 478 550 40,000  Level Denver Center
07:15PM 42.6489 -99.7089 299° West 481 554 40,000 180 Level Denver Center
07:16PM 42.7242 -99.8953 299° West 481 554 40,400 720 Climbing Denver Center
07:17PM 42.7864 -100.0558 298° West 480 552 41,600 1,080 Climbing Denver Center
07:18PM 42.8456 -100.2031 299° West 455 524 42,700 660 Climbing Denver Center
07:19PM 42.9042 -100.3508 298° West 445 512 43,000 120 Climbing Denver Center
07:20PM 42.9633 -100.5036 298° West 451 519 43,000  Level Denver Center
07:21PM 43.0219 -100.6525 298° West 446 513 43,000  Level Denver Center
07:22PM 43.0903 -100.8303 298° West 442 509 43,000  Level Denver Center
07:23PM 43.1483 -100.9794 298° West 442 509 43,000  Level Denver Center
07:24PM 43.2056 -101.1297 298° West 442 509 43,100  Climbing Denver Center
07:25PM 43.2628 -101.2797 298° West 443 510 43,000 -60 Descending Denver Center
07:26PM 43.3206 -101.4319 298° West 447 514 43,000  Level Denver Center
07:27PM 43.3775 -101.5847 297° West 448 516 43,000  Level Denver Center
07:28PM 43.4453 -101.7653 297° West 445 512 43,000  Level Denver Center
07:29PM 43.5039 -101.9189 298° West 450 518 43,000  Level Denver Center
07:30PM 43.5581 -102.0664 297° West 439 505 43,000  Level Denver Center
07:31PM 43.6164 -102.2239 297° West 428 493 43,000  Level Denver Center
07:33PM 43.6683 -102.3658 297° West 433 498 43,000  Level Denver Center
07:34PM 43.7294 -102.5322 297° West 435 501 43,000  Level Denver Center
07:35PM 43.7789 -102.6717 296° West 428 493 43,000  Level Denver Center
07:36PM 43.8394 -102.8403 297° West 433 498 43,000  Level Denver Center
07:37PM 43.8933 -102.9856 297° West 439 505 43,000  Level Denver Center
07:38PM 43.9458 -103.1311 297° West 442 509 43,000  Level Denver Center
07:39PM 44.0036 -103.2961 296° West 433 498 43,000  Level Denver Center
07:40PM 44.0547 -103.4411 296° West 434 499 43,000  Level Denver Center
07:41PM 44.1128 -103.6069 296° West 428 493 43,000  Level Denver Center
07:42PM 44.1622 -103.7472 296° West 423 487 43,000  Level Denver Center
07:43PM 44.2197 -103.9139 296° West 427 491 43,000  Level Denver Center
07:44PM 44.2697 -104.0583 296° West 431 496 43,000  Level Denver Center
07:45PM 44.3281 -104.2256 296° West 430 495 43,000  Level Denver Center
07:46PM 44.3769 -104.3717 295° West 433 498 43,000  Level Denver Center
07:47PM 44.4272 -104.5150 296° West 432 497 43,000  Level Salt Lake Center
07:48PM 44.4842 -104.6872 295° West 434 499 43,000  Level Denver Center
07:49PM 44.5425 -104.8592 296° West 437 503 43,000  Level Denver Center
07:50PM 44.5903 -105.0061 295° West 436 502 43,000  Level Denver Center
07:51PM 44.6478 -105.1767 295° West 435 501 43,000  Level Denver Center
07:52PM 44.6950 -105.3225 295° West 432 497 43,000  Level Denver Center
07:53PM 44.7433 -105.4675 295° West 428 493 43,000  Level Denver Center
07:54PM 44.8017 -105.6483 295° West 425 489 43,000  Level Denver Center
07:55PM 44.8397 -105.7678 294° West 423 487 43,000  Level Salt Lake Center
07:56PM 44.8875 -105.9183 294° West 422 486 43,000  Level Salt Lake Center
07:57PM 44.9369 -106.0689 295° West 423 487 43,000  Level Salt Lake Center
07:58PM 44.9944 -106.2492 294° West 422 486 43,000  Level Salt Lake Center
07:59PM 45.0408 -106.3989 294° West 420 483 43,000  Level Salt Lake Center
08:00PM 45.0872 -106.5478 294° West 417 480 43,000  Level Salt Lake Center
08:01PM 45.1339 -106.6975 294° West 418 481 43,000  Level Salt Lake Center
08:02PM 45.1806 -106.8481 294° West 418 481 43,000  Level Salt Lake Center
08:03PM 45.2275 -106.9975 294° West 418 481 43,000  Level Salt Lake Center
08:04PM 45.2819 -107.1744 294° West 412 474 43,000  Level Salt Lake Center
08:05PM 45.3261 -107.3225 293° West 411 473 43,000  Level Salt Lake Center
08:06PM 45.3697 -107.4681 293° West 406 467 43,000  Level Salt Lake Center
08:07PM 45.4131 -107.6131 293° West 403 464 43,000  Level Salt Lake Center
08:09PM 45.4569 -107.7614 293° West 409 471 43,000  Level Salt Lake Center
08:10PM 45.5019 -107.9100 293° West 412 474 43,000  Level Salt Lake Center
08:11PM 45.5550 -108.0892 293° West 412 474 43,000  Level Salt Lake Center
08:12PM 45.5983 -108.2378 293° West 410 472 43,000  Level Salt Lake Center
08:13PM 45.6414 -108.3881 292° West 412 474 43,000  Level Salt Lake Center
08:14PM 45.6850 -108.5392 292° West 412 474 43,000  Level Salt Lake Center
08:15PM 45.7278 -108.6908 292° West 414 476 43,000  Level Salt Lake Center
08:16PM 45.7706 -108.8392 293° West 406 467 43,000  Level Salt Lake Center
08:17PM 45.8136 -108.9878 293° West 405 466 43,000  Level Salt Lake Center
08:18PM 45.8650 -109.1672 292° West 406 467 43,000  Level Salt Lake Center
08:19PM 45.9081 -109.3164 293° West 406 467 43,000  Level Salt Lake Center
08:20PM 45.9500 -109.4667 292° West 407 468 43,000  Level Salt Lake Center
08:21PM 45.9919 -109.6167 292° West 407 468 43,000  Level Salt Lake Center
08:22PM 46.0342 -109.7675 292° West 408 470 43,000  Level Salt Lake Center
08:23PM 46.0736 -109.9208 290° West 410 472 43,000  Level Salt Lake Center
08:24PM 46.1150 -110.0719 292° West 409 471 43,000  Level Salt Lake Center
08:25PM 46.1644 -110.2586 291° West 414 476 43,000  Level Salt Lake Center
08:26PM 46.2069 -110.4156 291° West 421 484 43,000  Level Salt Lake Center
08:27PM 46.2486 -110.5736 291° West 422 486 43,000  Level Salt Lake Center
08:28PM 46.2903 -110.7292 291° West 420 483 43,000  Level Salt Lake Center
08:29PM 46.3303 -110.8828 291° West 412 474 43,000  Level Salt Lake Center
08:30PM 46.3753 -111.0511 291° West 416 479 43,000  Level Salt Lake Center
08:31PM 46.4206 -111.2233 291° West 419 482 43,000  Level Salt Lake Center
08:32PM 46.4558 -111.3631 290° West 423 487 43,000  Level Salt Lake Center
08:33PM 46.4958 -111.5228 290° West 421 484 43,000  Level Salt Lake Center
08:34PM 46.5361 -111.6811 290° West 419 482 43,000 -60 Level Salt Lake Center
08:35PM 46.5769 -111.8383 291° West 418 481 42,900 -60 Descending Salt Lake Center
08:36PM 46.6236 -112.0278 290° West 415 478 42,900  Level Salt Lake Center
08:37PM 46.6628 -112.1836 290° West 411 473 43,000  Climbing Salt Lake Center
08:38PM 46.7017 -112.3406 290° West 411 473 43,000  Level Salt Lake Center
08:39PM 46.7411 -112.5014 290° West 420 483 43,000  Level Salt Lake Center
08:40PM 46.7808 -112.6664 289° West 432 497 43,000  Level Salt Lake Center
08:41PM 46.8217 -112.8311 290° West 431 496 43,000 -60 Level Salt Lake Center
08:42PM 46.8653 -113.0144 289° West 438 504 42,900  Descending Salt Lake Center
08:43PM 46.9036 -113.1772 289° West 427 491 43,000  Climbing Salt Lake Center
08:44PM 46.9431 -113.3378 290° West 421 484 43,000  Level Salt Lake Center
08:45PM 46.9800 -113.5022 288° West 425 489 43,000 -60 Level Salt Lake Center
08:46PM 47.0186 -113.6658 289° West 425 489 42,900  Descending Salt Lake Center
08:48PM 47.0564 -113.8328 288° West 430 495 43,000  Climbing Salt Lake Center
08:49PM 47.0953 -113.9967 289° West 426 490 43,000  Level Salt Lake Center
08:50PM 47.1392 -114.1908 288° West 418 481 43,000  Level Salt Lake Center
08:51PM 47.1744 -114.3522 288° West 416 479 43,000  Level Salt Lake Center
08:52PM 47.2114 -114.5150 289° West 419 482 43,000  Level Salt Lake Center
08:53PM 47.2483 -114.6797 288° West 422 486 43,000  Level Salt Lake Center
08:54PM 47.2844 -114.8461 288° West 425 489 43,000  Level Salt Lake Center
08:54PM 47.3064 -114.9469 288° West 426 490 43,000  Level Seattle Center
08:55PM 47.3428 -115.1150 288° West 429 494 43,000  Level Seattle Center
08:56PM 47.3786 -115.2847 287° West 431 496 43,000  Level Seattle Center
08:57PM 47.4158 -115.4533 288° West 432 497 43,000  Level Seattle Center
08:58PM 47.4511 -115.6258 287° West 436 502 43,000  Level Seattle Center
08:59PM 47.4669 -115.8164 277° West 436 502 43,000  Level Seattle Center
09:00PM 47.4786 -115.9897 276° West 429 494 43,000  Level Seattle Center
09:01PM 47.4875 -116.1608 274° West 422 486 43,000  Level Seattle Center
09:02PM 47.4972 -116.3331 275° West 423 487 43,000  Level Seattle Center
09:03PM 47.5078 -116.5039 275° West 419 482 43,000  Level Seattle Center
09:04PM 47.5169 -116.6744 275° West 418 481 43,000  Level Seattle Center
09:05PM 47.5267 -116.8442 275° West 416 479 43,000  Level Seattle Center
09:06PM 47.5356 -117.0008 275° West 416 479 43,000  Level Seattle Center
09:07PM 47.5461 -117.1711 275° West 416 479 43,000  Level Seattle Center
09:08PM 47.5522 -117.3694 273° West 417 480 43,000  Level Seattle Center
09:09PM 47.5606 -117.5397 274° West 417 480 43,000  Level Seattle Center
09:10PM 47.5708 -117.7111 275° West 417 480 43,000  Level Seattle Center
09:11PM 47.5894 -117.8808 279° West 418 481 43,000  Level Seattle Center
09:12PM 47.6050 -118.0525 278° West 421 484 43,000  Level Seattle Center
09:13PM 47.6206 -118.2225 278° West 419 482 43,000  Level Seattle Center
09:14PM 47.6347 -118.3919 277° West 417 480 43,000  Level Seattle Center
09:15PM 47.6517 -118.5642 278° West 421 484 43,000  Level Seattle Center
09:16PM 47.6664 -118.7367 277° West 422 486 43,000  Level Seattle Center
09:17PM 47.6806 -118.9103 277° West 423 487 43,000 -60 Level Seattle Center
09:19PM 47.6961 -119.0822 278° West 423 487 42,900 -780 Descending Seattle Center
09:20PM 47.7094 -119.2553 277° West 423 487 41,500 -1,440 Descending Seattle Center
09:21PM 47.7244 -119.4267 277° West 422 486 40,000 -1,620 Descending Seattle Center
09:22PM 47.7383 -119.5994 277° West 424 488 38,300 -1,980 Descending Seattle Center
09:23PM 47.7536 -119.7947 277° West 401 461 36,100 -2,220 Descending Seattle Center
09:24PM 47.7647 -119.9539 276° West 391 450 33,900 -2,220 Descending Seattle Center
09:25PM 47.7772 -120.1167 277° West 397 457 31,700 -2,220 Descending Seattle Center
09:26PM 47.7908 -120.2889 277° West 415 478 29,500 -2,220 Descending Seattle Center
09:27PM 47.8028 -120.4583 276° West 417 480 27,300 -2,220 Descending Seattle Center
09:28PM 47.8147 -120.6222 276° West 403 464 25,100 -2,160 Descending Seattle Center
09:29PM 47.8286 -120.7794 278° West 391 450 23,000 -2,160 Descending Seattle Center
09:30PM 47.8375 -120.9467 275° West 388 447 20,900 -2,220 Descending Seattle Center
09:30PM 47.8358 -120.9497 231° Southwest 390 449 20,800 -2,040 Descending Seattle Center
09:30PM 47.8425 -121.0169 278° West 387 445 19,900 -2,040 Descending Seattle Center
09:31PM 47.8469 -121.1058 274° West 383 441 18,800 -2,700 Descending Seattle Center
09:31PM 47.8531 -121.1836 277° West 380 437 17,200 -2,400 Descending Seattle Center
09:32PM 47.8592 -121.2656 276° West 376 433 16,400 -1,380 Descending Seattle Center
09:32PM 47.8633 -121.3336 275° West 369 425 15,800 -1,620 Descending Seattle Center
09:33PM 47.8675 -121.4117 275° West 356 410 14,800 -1,920 Descending Seattle Center
09:33PM 47.8739 -121.4769 278° West 344 396 13,900 -1,920 Descending Seattle Center
09:34PM 47.8769 -121.5550 273° West 323 372 12,900 -1,440 Descending Seattle Center
09:34PM 47.8803 -121.6058 276° West 277 319 12,300 -1,440 Descending Seattle Center
09:35PM 47.8831 -121.6647 274° West 271 312 11,500 -1,740 Descending Seattle Center
09:35PM 47.8739 -121.7189 256° West 243 280 10,600 -1,620 Descending Seattle Center
09:36PM 47.8525 -121.7500 224° Southwest 243 280 9,900 -1,440 Descending Seattle Center
09:36PM 47.8403 -121.8042 251° West 239 275 9,000 -1,500 Descending Seattle Center
09:37PM 47.8439 -121.8433 278° West 252 290 8,400 -1,200 Descending Seattle Center
09:37PM 47.8575 -121.9069 288° West 262 302 7,800 -1,140 Descending Seattle Center
09:38PM 47.8711 -121.9408 301° West 257 296 7,300 -1,200 Descending Seattle Center
09:38PM 47.8897 -121.9981 296° West 240 276 6,600 -1,320 Descending Seattle Center
09:39PM 47.8889 -122.0300 268° West 228 262 6,000 -1,560 Descending Seattle Center
09:39PM 47.8839 -122.0806 262° West 201 231 5,200 -1,380 Descending Seattle Center
09:40PM 47.8850 -122.1197 272° West 212 244 4,600 -1,200 Descending Seattle Center
09:40PM 47.9028 -122.1725 297° West 241 277 3,900 -1,200 Descending Seattle Center
09:41PM 47.9097 -122.2078 286° West 232 267 3,400 -900 Descending Seattle Center
09:41PM 47.8997 -122.2569 253° West 191 220 3,000 -420 Descending Seattle Center
09:42PM 47.8911 -122.2875 247° West 207 238 3,000  Level Seattle Center
09:42PM 47.8806 -122.3403 253° West 203 234 3,000  Level Seattle Center
09:43PM 47.8739 -122.3656 249° West 202 232 3,000 -540 Level Seattle Center
09:43PM 47.8475 -122.3850 206° Southwest 154 177 2,500 -720 Descending Seattle Center
09:44PM 47.8325 -122.3950 204° Southwest 167 192 2,300 -300 Descending Seattle Center
09:44PM 47.8067 -122.4175 210° Southwest 172 198 2,200 -120 Descending Seattle Center
09:45PM 47.7911 -122.4275 203° Southwest 167 192 2,200  Level Seattle Center
09:45PM 47.7619 -122.4522 210° Southwest 171 197 2,200  Level Seattle Center
09:46PM 47.7483 -122.4556 189° South 168 193 2,200  Level Seattle Center
09:46PM 47.7253 -122.4558 180° South 158 182 2,200  Level Seattle Center
09:47PM 47.7017 -122.4492 169° South 157 181 2,200  Level Seattle Center
09:47PM 47.6825 -122.4269 142° Southeast 187 215 2,200  Level Seattle Center
09:48PM 47.6619 -122.4150 159° South 164 189 2,200  Level Seattle Center
09:48PM 47.6417 -122.3969 149° Southeast 161 185 2,200 -240 Level Seattle Center
09:49PM 47.6247 -122.3833 152° Southeast 157 181 2,000 -540 Descending Seattle Center
09:49PM 47.6106 -122.3711 150° Southeast 127 146 1,700 -600 Descending Seattle Center
09:50PM 47.5961 -122.3592 151° Southeast 126 145 1,400 -600 Descending Seattle Center
09:50PM 47.5825 -122.3472 149° Southeast 104 120 1,100 -600 Descending Seattle Center
09:51PM 47.5692 -122.3372 153° Southeast 113 130 800 -660 Descending Seattle Center
09:51PM 47.5594 -122.3272 145° Southeast 106 122 500 -420 Descending Seattle Center
09:52PM 47.5442 -122.3161 154° Southeast 110 127 400 -180 Descending Seattle Center